Overview Statistics Trail Chart Weather Telemetry Raw packets
 

This is the latest recevied weather packets stored in our database for station/object KJ7HSW. If no packets are shown the sender has not sent any weather packets the latest 10 day(s).

<< 8 9 10 11 12 13 14 >>
Time Temp. Humidity Pressure Rain* Wind** Luminosity Snow
1788545689 17.22° C 65% 1013.7 hPa 0 mm - 238 W/m² -
1788545383 17.22° C 66% 1013.8 hPa 0 mm - 263 W/m² -
1788545079 17.22° C 65% 1013.8 hPa 0 mm - 270 W/m² -
1788544779 17.78° C 65% 1013.8 hPa 0 mm - 265 W/m² -
1788544478 17.78° C 62% 1013.8 hPa 0 mm - 273 W/m² -
1788544178 17.78° C 63% 1014 hPa 0 mm - 679 W/m² -
1788543873 17.78° C 65% 1013.9 hPa 0 mm - 576 W/m² -
1788543569 17.22° C 65% 1013.8 hPa 0 mm - 574 W/m² -
1788543259 17.22° C 67% 1013.8 hPa 0 mm - 484 W/m² -
1788542955 17.22° C 68% 1013.8 hPa 0 mm - 271 W/m² -
1788542655 17.22° C 68% 1013.9 hPa 0 mm - 616 W/m² -
1788542349 16.67° C 72% 1013.8 hPa 0 mm - 600 W/m² -
1788542044 15.56° C 77% 1013.8 hPa 0 mm - 285 W/m² -
1788541741 15° C 78% 1013.8 hPa 0 mm - 281 W/m² -
1788541435 14.44° C 82% 1013.9 hPa 0 mm - 214 W/m² -
1788541130 14.44° C 81% 1014 hPa 0 mm - 169 W/m² -
1788540824 15° C 78% 1014 hPa 0 mm - 126 W/m² -
1788540518 15° C 77% 1013.9 hPa 0 mm - 98 W/m² -
1788540213 15° C 76% 1013.7 hPa 0 mm - 100 W/m² -
1788539910 15° C 78% 1013.8 hPa 0 mm - 134 W/m² -
1788539609 14.44° C 81% 1013.9 hPa 0 mm - 455 W/m² -
1788539308 14.44° C 84% 1013.9 hPa 0 mm - 467 W/m² -
1788539004 14.44° C 84% 1013.9 hPa 0 mm - 433 W/m² -
1788538700 13.33° C 87% 1013.8 hPa 0 mm - 468 W/m² -
1788538400 13.33° C 87% 1013.9 hPa 0 mm - 221 W/m² -

* Rain latest hour (hover to see other rain measurements)
** Current wind speed in m/s (hover to see current wind gust speed)